Time;durP1;ratioP1;P1;durP2;ratioP2;P2;SDS_P1;SDS_P2;PMS_P1;PMS_P2;Temp;Humidity;BMP_temperature;BMP_pressure;BME280_temperature;BME280_humidity;BME280_pressure;Samples;Min_cycle;Max_cycle;Signal;HPM_P1;HPM_P2
2023/02/14 00:01:34;;;;;;;;;;;;;;;13.01;48.74;102726.44;5016484;28;19913;-73
2023/02/14 00:04:26;;;;;;;;;;;;;;;13.01;48.89;102724.50;5015394;28;19914;-72
2023/02/14 00:07:18;;;;;;;;;;;;;;;12.98;49.10;102719.63;5018462;28;19913;-72
2023/02/14 00:10:10;;;;;;;;;;;;;;;13.02;49.32;102722.59;5016235;28;20390;-72
2023/02/14 00:13:01;;;;;;;;;;;;;;;12.98;49.30;102721.53;5008753;28;19913;-72
2023/02/14 00:15:53;;;;;;;;;;;;;;;12.99;49.46;102717.72;5017316;28;20297;-72
2023/02/14 00:21:54;;;;;;;;;;;;;;;13.04;49.34;102714.97;5015011;28;19913;-72
2023/02/14 00:24:46;;;;;;;;;;;;;;;13.06;49.54;102720.94;5016265;28;19913;-72
2023/02/14 00:27:38;;;;;;;;;;;;;;;13.05;49.46;102713.88;5014277;28;19913;-72
2023/02/14 00:30:27;;;;;;;;;;;;;;;13.04;49.21;102714.97;5001858;28;19917;-72
2023/02/14 00:33:19;;;;;;;;;;;;;;;13.02;48.98;102708.94;5000614;28;20390;-73
2023/02/14 00:36:08;;;;;;;;;;;;;;;13.00;48.75;102709.25;5011877;28;19914;-72
2023/02/14 00:39:00;;;;;;;;;;;;;;;13.00;48.99;102708.44;5012433;28;19921;-72
2023/02/14 00:41:52;;;;;;;;;;;;;;;12.98;49.08;102700.50;4997174;28;20302;-72
2023/02/14 00:44:44;;;;;;;;;;;;;;;13.01;49.28;102701.84;5012505;28;19913;-72
2023/02/14 00:47:36;;;;;;;;;;;;;;;12.99;49.11;102698.59;5012763;28;20378;-72
2023/02/14 00:50:28;;;;;;;;;;;;;;;12.90;49.11;102695.63;5013489;28;20306;-72
2023/02/14 00:53:19;;;;;;;;;;;;;;;12.84;49.07;102692.13;5002053;28;19917;-73
2023/02/14 00:56:12;;;;;;;;;;;;;;;12.84;49.05;102689.41;5014489;28;19913;-72
2023/02/14 00:59:05;;;;;;;;;;;;;;;12.85;49.31;102690.19;5010588;28;19917;-72
2023/02/14 01:01:57;;;;;;;;;;;;;;;12.89;49.27;102685.81;5014237;28;20290;-72
2023/02/14 01:04:48;;;;;;;;;;;;;;;12.89;49.04;102685.00;5011991;28;19913;-72
2023/02/14 01:07:40;;;;;;;;;;;;;;;12.88;49.17;102686.91;4993667;28;19913;-72
2023/02/14 01:10:32;;;;;;;;;;;;;;;12.90;49.30;102681.19;4996026;28;19918;-73
2023/02/14 01:13:24;;;;;;;;;;;;;;;12.89;49.39;102688.56;4980048;28;19914;-72
2023/02/14 01:16:16;;;;;;;;;;;;;;;12.92;49.67;102671.59;4992778;28;19913;-72
2023/02/14 01:19:08;;;;;;;;;;;;;;;12.91;49.65;102666.41;5001568;28;20409;-73
2023/02/14 01:22:00;;;;;;;;;;;;;;;12.92;49.48;102665.31;5000457;28;19918;-73
2023/02/14 01:24:52;;;;;;;;;;;;;;;12.91;49.76;102660.94;5012429;28;19913;-72
2023/02/14 01:27:43;;;;;;;;;;;;;;;12.92;49.85;102657.13;4994551;28;19914;-72
2023/02/14 01:30:35;;;;;;;;;;;;;;;12.89;50.08;102654.97;5010867;28;20309;-73
2023/02/14 01:33:25;;;;;;;;;;;;;;;12.91;49.71;102656.31;5001574;28;19913;-72
2023/02/14 01:36:21;;;;;;;;;;;;;;;12.89;49.26;102657.69;5012237;28;19913;-72
2023/02/14 01:39:13;;;;;;;;;;;;;;;12.75;49.21;102652.84;5011818;28;19921;-73
2023/02/14 01:42:07;;;;;;;;;;;;;;;12.70;49.09;102639.22;5016728;28;19913;-72
2023/02/14 01:44:59;;;;;;;;;;;;;;;12.73;49.33;102632.41;5010543;28;19917;-72
2023/02/14 01:47:55;;;;;;;;;;;;;;;12.72;49.25;102622.59;5015471;28;19913;-72
2023/02/14 01:50:46;;;;;;;;;;;;;;;12.71;48.84;102631.88;5009304;28;19914;-72
2023/02/14 01:53:38;;;;;;;;;;;;;;;12.66;48.39;102627.25;5015718;28;19913;-73
2023/02/14 01:56:48;;;;;;;;;;;;;;;12.66;49.13;102626.44;5019141;28;19917;-72
2023/02/14 01:59:42;;;;;;;;;;;;;;;12.67;50.12;102617.97;5000935;28;20397;-72
2023/02/14 02:02:34;;;;;;;;;;;;;;;12.69;50.19;102614.97;5015048;28;19913;-72
2023/02/14 02:05:27;;;;;;;;;;;;;;;12.68;49.60;102603.22;5000851;28;19913;-72
2023/02/14 02:08:16;;;;;;;;;;;;;;;12.67;49.53;102598.88;5000699;28;19913;-72
2023/02/14 02:11:08;;;;;;;;;;;;;;;12.56;49.55;102588.28;5002817;28;19913;-72
2023/02/14 02:14:01;;;;;;;;;;;;;;;12.57;49.58;102585.28;5011572;28;19913;-73
2023/02/14 02:17:04;;;;;;;;;;;;;;;12.51;49.47;102586.41;5015018;28;19913;-73
2023/02/14 02:20:21;;;;;;;;;;;;;;;12.53;49.44;102580.69;5022346;28;19914;-72
2023/02/14 02:23:32;;;;;;;;;;;;;;;12.49;49.49;102576.88;5011665;28;19914;-72
2023/02/14 02:26:43;;;;;;;;;;;;;;;12.52;49.71;102579.84;5014736;28;19958;-72
2023/02/14 02:29:53;;;;;;;;;;;;;;;12.51;49.67;102580.13;5018779;28;19914;-72
2023/02/14 02:32:58;;;;;;;;;;;;;;;12.44;49.67;102569.56;4967869;28;19918;-72
2023/02/14 02:36:16;;;;;;;;;;;;;;;12.42;49.40;102566.28;5013823;28;19913;-73
2023/02/14 02:39:09;;;;;;;;;;;;;;;12.46;49.78;102555.59;5023503;28;19926;-72
2023/02/14 02:42:19;;;;;;;;;;;;;;;12.48;49.62;102565.16;5001978;28;19913;-72
2023/02/14 02:45:28;;;;;;;;;;;;;;;12.51;50.48;102567.31;5010578;28;19914;-72
2023/02/14 02:48:22;;;;;;;;;;;;;;;12.54;50.57;102566.75;5014257;28;19917;-72
2023/02/14 02:54:33;;;;;;;;;;;;;;;12.53;49.94;102569.75;5006579;28;19913;-72
2023/02/14 02:57:27;;;;;;;;;;;;;;;12.52;50.01;102558.03;5017106;28;19917;-72
2023/02/14 03:00:17;;;;;;;;;;;;;;;12.53;50.20;102556.13;4998688;28;19913;-72
2023/02/14 03:06:19;;;;;;;;;;;;;;;12.54;50.18;102558.56;4994790;28;19914;-72
2023/02/14 03:09:34;;;;;;;;;;;;;;;12.52;50.39;102560.75;5003601;28;19913;-72
2023/02/14 03:12:36;;;;;;;;;;;;;;;12.49;50.28;102561.34;4993334;28;19913;-72
2023/02/14 03:15:29;;;;;;;;;;;;;;;12.46;49.78;102556.44;5003490;28;19914;-72
2023/02/14 03:21:46;;;;;;;;;;;;;;;12.37;49.47;102552.66;4993876;28;19913;-72
2023/02/14 03:24:47;;;;;;;;;;;;;;;12.33;49.05;102557.06;4992453;28;19913;-72
2023/02/14 03:27:42;;;;;;;;;;;;;;;12.30;49.17;102558.44;5004143;28;19914;-72
2023/02/14 03:30:44;;;;;;;;;;;;;;;12.20;49.13;102558.47;5000651;28;19914;-71
2023/02/14 03:33:39;;;;;;;;;;;;;;;12.21;49.27;102562.03;5006214;28;19914;-72
2023/02/14 03:36:41;;;;;;;;;;;;;;;12.18;49.53;102559.88;5002908;28;19915;-73
2023/02/14 03:39:40;;;;;;;;;;;;;;;12.18;49.40;102574.34;5013295;28;19918;-73
2023/02/14 03:42:32;;;;;;;;;;;;;;;12.17;49.31;102566.41;4980898;28;19913;-72
2023/02/14 03:45:30;;;;;;;;;;;;;;;12.15;49.22;102572.16;4997750;28;19913;-71
2023/02/14 03:48:22;;;;;;;;;;;;;;;12.14;49.09;102577.91;5013299;28;20377;-73
2023/02/14 03:51:15;;;;;;;;;;;;;;;12.09;48.93;102577.94;5015891;28;19917;-71
2023/02/14 03:54:07;;;;;;;;;;;;;;;12.09;49.01;102594.28;5014675;28;19914;-72
2023/02/14 03:57:01;;;;;;;;;;;;;;;11.98;48.30;102599.78;5012665;28;19914;-73
2023/02/14 03:59:54;;;;;;;;;;;;;;;11.85;47.17;102589.44;5015730;28;19922;-72
2023/02/14 04:02:45;;;;;;;;;;;;;;;11.70;46.48;102596.81;5012980;28;19921;-72
2023/02/14 04:05:37;;;;;;;;;;;;;;;11.67;47.42;102592.75;5016257;28;20378;-72
2023/02/14 04:08:29;;;;;;;;;;;;;;;11.67;47.89;102589.22;5015121;28;19914;-72
2023/02/14 04:11:21;;;;;;;;;;;;;;;11.55;46.92;102587.59;5017344;28;20281;-72
2023/02/14 04:14:13;;;;;;;;;;;;;;;11.59;48.18;102590.56;5013908;28;19913;-72
2023/02/14 04:20:18;;;;;;;;;;;;;;;11.70;48.90;102585.91;5036171;28;19913;-71
2023/02/14 04:23:10;;;;;;;;;;;;;;;11.76;49.36;102598.47;5008034;28;19917;-71
2023/02/14 04:26:02;;;;;;;;;;;;;;;11.74;49.17;102582.38;4998310;28;19913;-72
2023/02/14 04:28:54;;;;;;;;;;;;;;;11.72;48.70;102579.13;5009264;28;19914;-72
2023/02/14 04:31:46;;;;;;;;;;;;;;;11.63;47.45;102580.75;5005944;28;19913;-71
2023/02/14 04:34:38;;;;;;;;;;;;;;;11.49;46.95;102579.69;5009222;28;19913;-72
2023/02/14 04:37:30;;;;;;;;;;;;;;;11.41;46.76;102572.91;5015076;28;19921;-72
2023/02/14 04:40:22;;;;;;;;;;;;;;;11.33;47.32;102572.63;5012637;28;19918;-72
2023/02/14 04:43:14;;;;;;;;;;;;;;;11.29;46.56;102575.09;5012447;28;19913;-72
2023/02/14 04:46:06;;;;;;;;;;;;;;;11.36;48.16;102575.66;5013943;28;19914;-72
2023/02/14 04:48:58;;;;;;;;;;;;;;;11.26;47.70;102577.56;5016708;28;19914;-72
2023/02/14 04:51:50;;;;;;;;;;;;;;;11.21;47.45;102572.13;5007795;28;19913;-72
2023/02/14 04:54:42;;;;;;;;;;;;;;;11.11;47.16;102568.31;5012260;28;19913;-72
2023/02/14 04:57:34;;;;;;;;;;;;;;;11.21;48.44;102570.22;5016776;28;19917;-72
2023/02/14 05:00:25;;;;;;;;;;;;;;;11.26;48.96;102570.22;5014696;28;19913;-73
2023/02/14 05:03:17;;;;;;;;;;;;;;;11.32;49.32;102573.75;5011551;28;19917;-72
2023/02/14 05:06:09;;;;;;;;;;;;;;;11.35;49.64;102565.03;5016374;28;19913;-73
2023/02/14 05:09:01;;;;;;;;;;;;;;;11.36;48.97;102566.66;5013386;28;19913;-73
2023/02/14 05:11:53;;;;;;;;;;;;;;;11.31;48.45;102561.22;5011231;28;19913;-71
2023/02/14 05:14:45;;;;;;;;;;;;;;;11.27;48.75;102560.16;5014975;28;19913;-72
2023/02/14 05:17:37;;;;;;;;;;;;;;;11.29;49.45;102563.38;5008811;28;19918;-71
2023/02/14 05:20:29;;;;;;;;;;;;;;;11.23;48.72;102580.81;5017963;28;19922;-73
2023/02/14 05:23:21;;;;;;;;;;;;;;;11.13;47.25;102579.75;5014452;28;19921;-72
2023/02/14 05:26:13;;;;;;;;;;;;;;;10.96;46.41;102584.66;5016058;28;19914;-72
2023/02/14 05:29:05;;;;;;;;;;;;;;;10.94;47.15;102584.09;5020365;28;19921;-71
2023/02/14 05:31:57;;;;;;;;;;;;;;;10.93;47.92;102587.09;5019053;28;19913;-72
2023/02/14 05:34:49;;;;;;;;;;;;;;;10.91;48.47;102581.13;5033626;28;19913;-72
2023/02/14 05:37:41;;;;;;;;;;;;;;;10.94;49.03;102580.56;5011059;28;20294;-71
2023/02/14 05:40:33;;;;;;;;;;;;;;;10.94;48.74;102588.72;5033305;28;19913;-72
2023/02/14 05:43:25;;;;;;;;;;;;;;;10.94;49.06;102586.81;5016536;28;19917;-72
2023/02/14 05:46:16;;;;;;;;;;;;;;;10.98;49.80;102596.06;5013203;28;20297;-73
2023/02/14 05:49:08;;;;;;;;;;;;;;;10.91;49.08;102608.34;5014341;28;19913;-72
2023/02/14 05:52:00;;;;;;;;;;;;;;;10.90;49.47;102599.34;5012742;28;19917;-72
2023/02/14 05:54:52;;;;;;;;;;;;;;;10.94;49.72;102611.31;5022660;28;19912;-72
2023/02/14 05:57:44;;;;;;;;;;;;;;;10.93;49.49;102614.31;5024289;28;19921;-72
2023/02/14 06:00:36;;;;;;;;;;;;;;;10.94;49.72;102614.03;5028217;28;19913;-72
2023/02/14 06:03:28;;;;;;;;;;;;;;;10.95;49.80;102618.41;5017911;28;19913;-71
2023/02/14 06:06:20;;;;;;;;;;;;;;;10.94;50.03;102616.78;5019841;28;19914;-71
2023/02/14 06:09:12;;;;;;;;;;;;;;;11.04;51.83;102610.50;5017927;28;19913;-71
2023/02/14 06:12:04;;;;;;;;;;;;;;;10.90;49.98;102610.25;5015117;28;19914;-71
2023/02/14 06:14:56;;;;;;;;;;;;;;;10.88;50.13;102606.97;5036441;28;19913;-70
2023/02/14 06:17:51;;;;;;;;;;;;;;;10.79;48.63;102607.75;5018667;28;19918;-71
2023/02/14 06:20:43;;;;;;;;;;;;;;;10.67;48.11;102611.56;5020289;28;19913;-71
2023/02/14 06:23:35;;;;;;;;;;;;;;;10.46;47.47;102609.91;5015839;28;19913;-71
2023/02/14 06:26:29;;;;;;;;;;;;;;;10.23;48.33;102607.63;5016207;28;19913;-71
2023/02/14 06:29:19;;;;;;;;;;;;;;;10.09;48.30;102606.47;5019844;28;19914;-72
2023/02/14 06:32:11;;;;;;;;;;;;;;;9.87;47.46;102609.34;5016782;28;19921;-71
2023/02/14 06:35:03;;;;;;;;;;;;;;;9.88;48.03;102614.50;5020067;28;19914;-72
2023/02/14 06:37:54;;;;;;;;;;;;;;;9.97;48.72;102614.81;5029611;28;19917;-71
2023/02/14 06:40:46;;;;;;;;;;;;;;;9.93;48.30;102615.63;5016584;28;19914;-71
2023/02/14 06:43:38;;;;;;;;;;;;;;;10.01;48.33;102615.91;5020025;28;20294;-71
2023/02/14 06:46:30;;;;;;;;;;;;;;;10.16;50.36;102617.91;5014354;28;19922;-72
2023/02/14 06:49:22;;;;;;;;;;;;;;;10.25;51.43;102614.44;5005125;28;19913;-72
2023/02/14 06:52:14;;;;;;;;;;;;;;;10.29;51.59;102620.97;5007729;28;19921;-72
2023/02/14 06:55:06;;;;;;;;;;;;;;;10.19;50.57;102622.84;5014776;28;19914;-71
2023/02/14 06:57:58;;;;;;;;;;;;;;;10.12;51.20;102625.75;5014186;28;19917;-71
2023/02/14 07:00:50;;;;;;;;;;;;;;;10.28;52.98;102624.78;5014520;28;19913;-72
2023/02/14 07:03:42;;;;;;;;;;;;;;;10.12;50.83;102622.22;5009317;28;19913;-72
2023/02/14 07:06:34;;;;;;;;;;;;;;;10.23;51.72;102622.03;5016465;28;20371;-71
2023/02/14 07:09:26;;;;;;;;;;;;;;;10.05;49.69;102632.53;5014447;28;19914;-72
2023/02/14 07:12:18;;;;;;;;;;;;;;;10.04;49.84;102636.31;5012335;28;20286;-72
2023/02/14 07:15:11;;;;;;;;;;;;;;;10.04;50.29;102630.91;5015138;28;20286;-72
2023/02/14 07:18:03;;;;;;;;;;;;;;;9.91;49.39;102629.47;5014099;28;19917;-72
2023/02/14 07:20:55;;;;;;;;;;;;;;;9.62;49.07;102637.16;5016114;28;20313;-72
2023/02/14 07:23:45;;;;;;;;;;;;;;;9.70;49.62;102631.22;5008760;28;19914;-71
2023/02/14 07:26:38;;;;;;;;;;;;;;;9.71;49.12;102629.34;5016368;28;19913;-71
2023/02/14 07:29:30;;;;;;;;;;;;;;;9.67;49.13;102631.78;5016266;28;19913;-71
2023/02/14 07:32:22;;;;;;;;;;;;;;;9.62;49.02;102625.47;5013131;28;19921;-72
2023/02/14 07:35:14;;;;;;;;;;;;;;;9.74;49.83;102626.13;5013109;28;20277;-72
2023/02/14 07:38:03;;;;;;;;;;;;;;;9.75;50.09;102622.31;5008420;28;19925;-72
2023/02/14 07:40:55;;;;;;;;;;;;;;;9.73;50.12;102619.03;5016630;28;19917;-74
2023/02/14 07:43:47;;;;;;;;;;;;;;;9.87;52.46;102622.91;5014019;28;20305;-72
2023/02/14 07:46:39;;;;;;;;;;;;;;;9.87;51.99;102614.75;5012583;28;19913;-73
2023/02/14 07:49:31;;;;;;;;;;;;;;;10.07;54.68;102612.16;5016948;28;19913;-72
2023/02/14 07:52:23;;;;;;;;;;;;;;;10.24;56.71;102618.25;4995703;28;19913;-71
2023/02/14 07:55:15;;;;;;;;;;;;;;;10.03;52.37;102616.47;5001035;28;19921;-72
2023/02/14 07:58:07;;;;;;;;;;;;;;;9.86;51.41;102615.84;5012176;28;19917;-72
2023/02/14 08:00:59;;;;;;;;;;;;;;;9.85;51.25;102625.09;5009208;28;19913;-72
2023/02/14 08:03:50;;;;;;;;;;;;;;;10.07;54.38;102628.47;5014451;28;19913;-72
2023/02/14 08:06:42;;;;;;;;;;;;;;;10.20;56.03;102622.59;4996284;28;19913;-72
2023/02/14 08:09:32;;;;;;;;;;;;;;;10.31;56.94;102630.78;4997076;28;19914;-72
2023/02/14 08:18:39;;;;;;;;;;;;;;;10.50;57.78;102611.00;5014142;28;19917;-73
2023/02/14 08:21:30;;;;;;;;;;;;;;;10.32;54.01;102619.63;5013585;28;20302;-72
2023/02/14 08:24:22;;;;;;;;;;;;;;;10.23;53.47;102611.16;5017547;28;19917;-73
2023/02/14 08:27:14;;;;;;;;;;;;;;;10.35;55.21;102612.84;5009076;28;19917;-72
2023/02/14 08:30:06;;;;;;;;;;;;;;;10.25;53.30;102610.91;5021933;28;19913;-73
2023/02/14 08:32:59;;;;;;;;;;;;;;;10.17;52.94;102617.66;4993727;28;20377;-72
2023/02/14 08:35:52;;;;;;;;;;;;;;;10.12;52.56;102620.31;4995768;28;19917;-72
2023/02/14 08:38:43;;;;;;;;;;;;;;;10.11;52.43;102621.41;4993509;28;19918;-72
2023/02/14 08:41:35;;;;;;;;;;;;;;;10.11;52.25;102613.25;5007078;28;19913;-72
2023/02/14 08:44:27;;;;;;;;;;;;;;;10.08;51.85;102613.78;5014712;28;19917;-72
2023/02/14 08:47:19;;;;;;;;;;;;;;;10.06;51.89;102610.50;5012518;28;19917;-73
2023/02/14 08:50:12;;;;;;;;;;;;;;;10.07;51.64;102612.16;5017264;28;19917;-73
2023/02/14 08:53:04;;;;;;;;;;;;;;;10.11;51.51;102613.25;5015285;28;19913;-72
2023/02/14 08:55:56;;;;;;;;;;;;;;;10.14;51.06;102614.63;5016444;28;20298;-72
2023/02/14 08:58:48;;;;;;;;;;;;;;;10.16;51.28;102621.44;4999580;28;19917;-72
2023/02/14 09:01:37;;;;;;;;;;;;;;;10.17;51.36;102614.13;5007095;28;19929;-72
2023/02/14 09:04:26;;;;;;;;;;;;;;;10.17;51.75;102611.41;5019145;28;19996;-72
2023/02/14 09:07:18;;;;;;;;;;;;;;;10.20;51.87;102608.16;5018749;28;20301;-72
2023/02/14 09:10:10;;;;;;;;;;;;;;;10.22;52.33;102611.41;5016182;28;19913;-72
2023/02/14 09:13:02;;;;;;;;;;;;;;;10.26;52.36;102610.63;5016352;28;19913;-72
2023/02/14 09:15:52;;;;;;;;;;;;;;;10.28;52.67;102607.63;5017439;28;20377;-72
2023/02/14 09:18:42;;;;;;;;;;;;;;;10.31;52.79;102609.03;5021518;28;19917;-72
2023/02/14 09:21:34;;;;;;;;;;;;;;;10.33;53.05;102609.56;5018906;28;19914;-72
2023/02/14 09:24:26;;;;;;;;;;;;;;;10.38;53.03;102599.53;5014268;28;19913;-72
2023/02/14 09:27:18;;;;;;;;;;;;;;;10.39;53.17;102595.72;5018623;28;19913;-73
2023/02/14 09:30:09;;;;;;;;;;;;;;;10.44;53.40;102592.19;5019034;28;19913;-73
2023/02/14 09:33:03;;;;;;;;;;;;;;;10.45;53.69;102596.56;5015999;28;19917;-73
2023/02/14 09:35:49;;;;;;;;;;;;;;;10.48;53.57;102601.44;4999650;28;19914;-72
2023/02/14 09:38:41;;;;;;;;;;;;;;;10.50;53.82;102591.13;4997958;28;19922;-72
2023/02/14 09:41:44;;;;;;;;;;;;;;;10.54;53.77;102584.88;4995666;28;20286;-72
2023/02/14 09:44:37;;;;;;;;;;;;;;;10.60;54.18;102582.97;5013206;28;19913;-73
2023/02/14 09:47:43;;;;;;;;;;;;;;;10.64;54.29;102573.19;5015819;28;19913;-73
2023/02/14 09:50:43;;;;;;;;;;;;;;;10.66;54.14;102569.13;5018696;28;19943;-72
2023/02/14 09:53:41;;;;;;;;;;;;;;;10.70;54.23;102572.13;5015800;28;19913;-72
2023/02/14 09:56:36;;;;;;;;;;;;;;;10.73;54.37;102574.28;5019976;28;19913;-72
2023/02/14 09:59:35;;;;;;;;;;;;;;;10.73;54.69;102577.00;5017719;28;20293;-73
2023/02/14 10:02:37;;;;;;;;;;;;;;;10.73;54.18;102568.84;5015985;28;19917;-73
2023/02/14 10:05:31;;;;;;;;;;;;;;;10.77;54.69;102567.22;5016712;28;19913;-73
2023/02/14 10:08:46;;;;;;;;;;;;;;;10.94;56.18;102566.97;5012440;28;19918;-72
2023/02/14 10:11:36;;;;;;;;;;;;;;;11.12;57.36;102558.25;4999622;28;19913;-75
2023/02/14 10:14:28;;;;;;;;;;;;;;;11.25;56.88;102552.25;5018287;28;19914;-73
2023/02/14 10:17:21;;;;;;;;;;;;;;;11.31;56.63;102548.41;5019627;28;19921;-72
2023/02/14 10:20:29;;;;;;;;;;;;;;;11.37;56.78;102555.50;5022195;28;20298;-72
2023/02/14 10:23:31;;;;;;;;;;;;;;;11.53;56.66;102556.25;5009331;28;20294;-73
2023/02/14 10:26:23;;;;;;;;;;;;;;;11.61;56.29;102544.00;5014601;28;20386;-72
2023/02/14 10:29:17;;;;;;;;;;;;;;;11.74;56.62;102543.41;5013975;28;20250;-72
2023/02/14 10:32:12;;;;;;;;;;;;;;;11.78;56.44;102534.44;5018855;28;20378;-73
2023/02/14 10:35:06;;;;;;;;;;;;;;;11.83;55.97;102531.69;5012864;28;20370;-72
2023/02/14 10:38:12;;;;;;;;;;;;;;;11.87;54.77;102524.56;5027328;28;19912;-73
2023/02/14 10:41:02;;;;;;;;;;;;;;;11.93;55.58;102525.38;5009666;28;19917;-73
2023/02/14 10:44:00;;;;;;;;;;;;;;;11.94;54.99;102516.06;5009215;28;19913;-72
2023/02/14 10:47:03;;;;;;;;;;;;;;;11.97;55.02;102516.34;5015983;28;20378;-73
2023/02/14 10:50:12;;;;;;;;;;;;;;;11.99;54.32;102514.13;5004025;28;19913;-73
2023/02/14 10:53:11;;;;;;;;;;;;;;;12.07;55.02;102511.94;5011330;28;19913;-72
2023/02/14 10:56:04;;;;;;;;;;;;;;;12.14;54.55;102507.00;4996414;28;19913;-73
2023/02/14 10:58:55;;;;;;;;;;;;;;;12.22;54.02;102506.38;4999418;28;20374;-72
2023/02/14 11:01:48;;;;;;;;;;;;;;;12.31;53.17;102504.69;5014397;28;19914;-73
2023/02/14 11:04:40;;;;;;;;;;;;;;;12.39;52.02;102495.91;5023216;28;19913;-72
2023/02/14 11:07:32;;;;;;;;;;;;;;;12.37;50.89;102489.91;5025167;28;20317;-73
2023/02/14 11:10:25;;;;;;;;;;;;;;;12.38;51.16;102478.72;5015713;28;19913;-72
2023/02/14 11:13:28;;;;;;;;;;;;;;;12.52;53.91;102481.63;5013634;28;19918;-72
2023/02/14 11:16:33;;;;;;;;;;;;;;;12.49;52.50;102479.47;5026766;28;20301;-72
2023/02/14 11:19:37;;;;;;;;;;;;;;;12.50;52.83;102475.63;5022738;28;19917;-72
2023/02/14 11:22:33;;;;;;;;;;;;;;;12.60;52.76;102466.53;5025758;28;19913;-72
2023/02/14 11:25:26;;;;;;;;;;;;;;;12.66;51.87;102459.94;5023820;28;20382;-72
2023/02/14 11:28:20;;;;;;;;;;;;;;;12.67;51.41;102454.19;5014885;28;19921;-73
2023/02/14 11:31:12;;;;;;;;;;;;;;;12.78;52.07;102449.47;5011896;28;19917;-73
2023/02/14 11:34:06;;;;;;;;;;;;;;;12.84;52.40;102457.34;5019090;28;19917;-72
2023/02/14 11:36:58;;;;;;;;;;;;;;;12.85;52.41;102441.75;5017626;28;19913;-72
2023/02/14 11:39:47;;;;;;;;;;;;;;;12.94;53.01;102444.69;5015075;28;19917;-72
2023/02/14 11:42:38;;;;;;;;;;;;;;;12.98;51.59;102435.63;5015462;28;20420;-73
2023/02/14 11:45:32;;;;;;;;;;;;;;;13.02;51.61;102438.56;5011314;28;20382;-73
2023/02/14 11:48:27;;;;;;;;;;;;;;;13.08;50.42;102432.78;5013747;28;20362;-73
2023/02/14 11:51:19;;;;;;;;;;;;;;;13.12;51.41;102427.56;5015197;28;19913;-73
2023/02/14 11:54:10;;;;;;;;;;;;;;;13.23;51.50;102429.91;5014847;28;19914;-71
2023/02/14 11:57:19;;;;;;;;;;;;;;;14.19;48.48;102416.81;5019275;28;19913;-76
2023/02/14 12:00:19;;;;;;;;;;;;;;;15.42;41.27;102395.13;5015733;28;19917;-76
2023/02/14 12:03:19;;;;;;;;;;;;;;;15.90;38.02;102397.41;5011057;28;19932;-76
2023/02/14 12:06:11;;;;;;;;;;;;;;;16.08;38.31;102389.00;5013135;28;19913;-76
2023/02/14 12:09:30;;;;;;;;;;;;;;;16.13;37.90;102391.59;5007419;28;19917;-76
2023/02/14 12:12:24;;;;;;;;;;;;;;;16.31;36.15;102388.97;5009271;28;21503;-76
2023/02/14 12:15:34;;;;;;;;;;;;;;;16.38;36.47;102379.19;5007555;28;19913;-76
2023/02/14 12:18:42;;;;;;;;;;;;;;;16.44;37.00;102371.63;5007222;28;19921;-75
2023/02/14 12:22:04;;;;;;;;;;;;;;;16.50;37.25;102364.88;5004535;28;19917;-76
2023/02/14 12:25:28;;;;;;;;;;;;;;;16.69;36.90;102360.00;5005382;28;19921;-74
2023/02/14 12:28:21;;;;;;;;;;;;;;;16.84;35.91;102356.81;4914092;29;19915;-74
2023/02/14 12:31:13;;;;;;;;;;;;;;;16.98;37.23;102348.47;5006359;28;20286;-74
2023/02/14 12:34:05;;;;;;;;;;;;;;;17.05;36.27;102349.63;5010390;28;20543;-73
2023/02/14 12:37:10;;;;;;;;;;;;;;;17.19;36.22;102341.25;5011979;28;19913;-74
2023/02/14 12:40:12;;;;;;;;;;;;;;;17.16;36.17;102338.34;5010489;28;19922;-74
2023/02/14 12:43:19;;;;;;;;;;;;;;;16.94;36.53;102339.25;5009961;28;19917;-73
2023/02/14 12:46:11;;;;;;;;;;;;;;;15.79;37.84;102330.97;5014220;28;19913;-70
2023/02/14 12:49:13;;;;;;;;;;;;;;;15.71;38.09;102323.47;5017618;28;20297;-70
2023/02/14 12:52:21;;;;;;;;;;;;;;;15.58;38.01;102313.38;5014400;28;19913;-69
2023/02/14 12:55:19;;;;;;;;;;;;;;;15.58;37.71;102307.91;5010164;28;19918;-70
2023/02/14 12:58:17;;;;;;;;;;;;;;;15.79;37.33;102317.28;5015518;28;20385;-70
2023/02/14 13:01:19;;;;;;;;;;;;;;;15.63;37.86;102302.28;4993096;28;19918;-70
2023/02/14 13:04:27;;;;;;;;;;;;;;;15.82;37.60;102297.44;5013583;28;19913;-70
2023/02/14 13:07:18;;;;;;;;;;;;;;;16.07;36.36;102293.25;5008124;28;19914;-70
2023/02/14 13:10:15;;;;;;;;;;;;;;;16.23;35.96;102295.28;5020143;28;19921;-69
2023/02/14 13:13:08;;;;;;;;;;;;;;;16.89;35.20;102279.75;5012339;28;19913;-70
2023/02/14 13:16:06;;;;;;;;;;;;;;;19.67;30.83;102279.41;5009492;28;19918;-70
2023/02/14 13:19:02;;;;;;;;;;;;;;;21.62;27.38;102278.34;5011667;28;19917;-70
2023/02/14 13:21:55;;;;;;;;;;;;;;;18.02;32.65;102264.09;5010986;28;19921;-70
2023/02/14 13:24:48;;;;;;;;;;;;;;;16.18;35.01;102261.66;5023401;28;19913;-70
2023/02/14 13:27:40;;;;;;;;;;;;;;;15.98;35.53;102263.00;4994356;28;19914;-69
2023/02/14 13:30:30;;;;;;;;;;;;;;;15.69;36.05;102257.19;5013744;28;19917;-70
2023/02/14 13:33:23;;;;;;;;;;;;;;;15.77;36.53;102256.41;5012446;28;19913;-70
2023/02/14 13:36:13;;;;;;;;;;;;;;;16.00;36.01;102252.50;5020923;28;20374;-70
2023/02/14 13:39:06;;;;;;;;;;;;;;;16.27;35.76;102251.53;5019152;28;19917;-70
2023/02/14 13:41:58;;;;;;;;;;;;;;;16.41;35.84;102245.94;5013019;28;19913;-69
2023/02/14 13:44:51;;;;;;;;;;;;;;;16.13;35.78;102240.66;5005504;28;19917;-70
2023/02/14 13:47:43;;;;;;;;;;;;;;;16.35;35.44;102241.72;5018475;28;20490;-72
2023/02/14 13:50:34;;;;;;;;;;;;;;;16.25;35.39;102240.06;5005557;28;19921;-70
2023/02/14 13:53:42;;;;;;;;;;;;;;;16.33;34.79;102241.22;5017708;28;19921;-69
2023/02/14 13:56:35;;;;;;;;;;;;;;;16.10;35.49;102241.28;5029280;28;19916;-70
2023/02/14 13:59:36;;;;;;;;;;;;;;;16.13;35.63;102237.91;5021425;28;19922;-68
2023/02/14 14:02:32;;;;;;;;;;;;;;;16.40;35.29;102230.59;5032047;28;20309;-74
2023/02/14 14:05:34;;;;;;;;;;;;;;;16.16;35.17;102229.03;5018793;28;19913;-70
2023/02/14 14:08:23;;;;;;;;;;;;;;;16.18;34.85;102226.78;5012759;28;20404;-70
2023/02/14 14:11:15;;;;;;;;;;;;;;;16.08;35.19;102224.31;5015401;28;20451;-70
2023/02/14 14:14:07;;;;;;;;;;;;;;;16.15;35.03;102224.66;5007747;28;19921;-70
2023/02/14 14:17:02;;;;;;;;;;;;;;;16.16;35.67;102226.28;5015698;28;20382;-70
2023/02/14 14:19:54;;;;;;;;;;;;;;;16.43;35.88;102213.47;5014981;28;20318;-70
2023/02/14 14:22:47;;;;;;;;;;;;;;;16.57;35.50;102214.16;5012366;28;19917;-72
2023/02/14 14:25:40;;;;;;;;;;;;;;;16.52;34.94;102217.88;5018095;28;19913;-72
2023/02/14 14:28:33;;;;;;;;;;;;;;;16.52;35.78;102211.56;5015279;28;19921;-72
2023/02/14 14:31:25;;;;;;;;;;;;;;;16.57;35.86;102214.16;5017676;28;19921;-72
2023/02/14 14:34:23;;;;;;;;;;;;;;;16.41;36.15;102207.50;5011878;28;19913;-73
2023/02/14 14:37:17;;;;;;;;;;;;;;;16.37;36.15;102206.50;5016571;28;19921;-72
2023/02/14 14:40:19;;;;;;;;;;;;;;;16.23;36.08;102210.19;5013836;28;19917;-72
2023/02/14 14:43:38;;;;;;;;;;;;;;;16.16;36.27;102209.00;5012696;28;19913;-72
2023/02/14 14:46:29;;;;;;;;;;;;;;;16.33;36.47;102203.59;5010362;28;19913;-72
2023/02/14 14:49:21;;;;;;;;;;;;;;;16.04;36.15;102209.63;5018789;28;19913;-72
2023/02/14 14:52:24;;;;;;;;;;;;;;;16.07;36.46;102202.69;5007934;28;19913;-72
2023/02/14 14:55:20;;;;;;;;;;;;;;;16.11;36.77;102198.16;5015618;28;19925;-72
2023/02/14 14:58:31;;;;;;;;;;;;;;;15.97;36.70;102198.28;5020454;28;19917;-76
2023/02/14 15:01:33;;;;;;;;;;;;;;;15.94;36.62;102193.44;5016013;28;20381;-72
2023/02/14 15:04:30;;;;;;;;;;;;;;;15.78;36.41;102186.72;5010740;28;19912;-71
2023/02/14 15:07:22;;;;;;;;;;;;;;;15.83;36.63;102194.81;5014744;28;20297;-72
2023/02/14 15:10:39;;;;;;;;;;;;;;;15.66;36.92;102190.03;5013607;28;19913;-72
2023/02/14 15:13:52;;;;;;;;;;;;;;;15.58;37.30;102193.53;5003123;28;19914;-78
2023/02/14 15:16:46;;;;;;;;;;;;;;;15.62;37.49;102188.22;5015219;28;20329;-72
2023/02/14 15:19:39;;;;;;;;;;;;;;;15.62;37.52;102180.81;5012052;28;19917;-72
2023/02/14 15:22:34;;;;;;;;;;;;;;;15.57;37.49;102177.41;5010087;28;20386;-72